sensor_id;sensor_type;location;lat;lon;timestamp;temperature;humidity
27162;DHT22;54464;50.558;9.704;2023-06-22T00:01:14;20.00;99.90
27162;DHT22;54464;50.558;9.704;2023-06-22T00:03:40;20.10;99.90
27162;DHT22;54464;50.558;9.704;2023-06-22T00:06:06;19.80;99.90
27162;DHT22;54464;50.558;9.704;2023-06-22T00:08:31;19.30;99.90
27162;DHT22;54464;50.558;9.704;2023-06-22T00:11:00;18.90;99.90
27162;DHT22;54464;50.558;9.704;2023-06-22T00:13:25;18.70;99.90
27162;DHT22;54464;50.558;9.704;2023-06-22T00:15:51;18.50;99.90
27162;DHT22;54464;50.558;9.704;2023-06-22T00:18:16;18.40;99.90
27162;DHT22;54464;50.558;9.704;2023-06-22T00:20:42;18.40;99.90
27162;DHT22;54464;50.558;9.704;2023-06-22T00:23:08;18.30;99.90
27162;DHT22;54464;50.558;9.704;2023-06-22T00:25:38;18.40;99.90
27162;DHT22;54464;50.558;9.704;2023-06-22T00:28:05;18.50;99.90
27162;DHT22;54464;50.558;9.704;2023-06-22T00:30:31;18.40;99.90
27162;DHT22;54464;50.558;9.704;2023-06-22T00:33:00;18.40;99.90
27162;DHT22;54464;50.558;9.704;2023-06-22T00:35:26;18.60;99.90
27162;DHT22;54464;50.558;9.704;2023-06-22T00:37:55;18.60;99.90
27162;DHT22;54464;50.558;9.704;2023-06-22T00:40:26;18.60;99.90
27162;DHT22;54464;50.558;9.704;2023-06-22T00:42:53;18.50;99.90
27162;DHT22;54464;50.558;9.704;2023-06-22T00:45:29;18.70;99.90
27162;DHT22;54464;50.558;9.704;2023-06-22T00:47:58;18.90;99.90
27162;DHT22;54464;50.558;9.704;2023-06-22T00:50:31;18.90;99.90
27162;DHT22;54464;50.558;9.704;2023-06-22T00:53:08;19.00;99.90
27162;DHT22;54464;50.558;9.704;2023-06-22T00:55:44;19.10;99.90
27162;DHT22;54464;50.558;9.704;2023-06-22T00:58:12;19.20;99.90
27162;DHT22;54464;50.558;9.704;2023-06-22T01:00:51;19.30;99.90
27162;DHT22;54464;50.558;9.704;2023-06-22T01:03:16;19.40;99.90
27162;DHT22;54464;50.558;9.704;2023-06-22T01:05:42;19.30;99.90
27162;DHT22;54464;50.558;9.704;2023-06-22T01:08:42;19.20;99.90
27162;DHT22;54464;50.558;9.704;2023-06-22T01:11:20;19.10;99.90
27162;DHT22;54464;50.558;9.704;2023-06-22T01:13:57;19.20;99.90
27162;DHT22;54464;50.558;9.704;2023-06-22T01:16:30;19.20;99.90
27162;DHT22;54464;50.558;9.704;2023-06-22T01:19:03;19.20;99.90
27162;DHT22;54464;50.558;9.704;2023-06-22T01:21:32;19.30;99.90
27162;DHT22;54464;50.558;9.704;2023-06-22T01:24:15;18.90;99.90
27162;DHT22;54464;50.558;9.704;2023-06-22T01:26:54;18.50;99.90
27162;DHT22;54464;50.558;9.704;2023-06-22T01:29:22;18.50;99.90
27162;DHT22;54464;50.558;9.704;2023-06-22T01:31:53;18.70;99.90
27162;DHT22;54464;50.558;9.704;2023-06-22T01:34:23;18.80;99.90
27162;DHT22;54464;50.558;9.704;2023-06-22T01:36:52;18.50;99.90
27162;DHT22;54464;50.558;9.704;2023-06-22T01:39:18;18.20;99.90
27162;DHT22;54464;50.558;9.704;2023-06-22T01:41:44;18.10;99.90
27162;DHT22;54464;50.558;9.704;2023-06-22T01:44:11;18.00;99.90
27162;DHT22;54464;50.558;9.704;2023-06-22T01:46:41;18.00;99.90
27162;DHT22;54464;50.558;9.704;2023-06-22T01:49:10;17.90;99.90
27162;DHT22;54464;50.558;9.704;2023-06-22T01:51:35;17.70;99.90
27162;DHT22;54464;50.558;9.704;2023-06-22T01:54:06;17.70;99.90
27162;DHT22;54464;50.558;9.704;2023-06-22T01:56:38;17.70;99.90
27162;DHT22;54464;50.558;9.704;2023-06-22T01:59:17;17.70;99.90
27162;DHT22;54464;50.558;9.704;2023-06-22T02:01:54;17.70;99.90
27162;DHT22;54464;50.558;9.704;2023-06-22T02:04:26;17.80;99.90
27162;DHT22;54464;50.558;9.704;2023-06-22T02:06:56;17.80;99.90
27162;DHT22;54464;50.558;9.704;2023-06-22T02:09:26;17.70;99.90
27162;DHT22;54464;50.558;9.704;2023-06-22T02:12:00;17.60;99.90
27162;DHT22;54464;50.558;9.704;2023-06-22T02:14:27;17.60;99.90
27162;DHT22;54464;50.558;9.704;2023-06-22T02:16:59;17.60;99.90
27162;DHT22;54464;50.558;9.704;2023-06-22T02:19:28;17.60;99.90
27162;DHT22;54464;50.558;9.704;2023-06-22T02:22:01;17.60;99.90
27162;DHT22;54464;50.558;9.704;2023-06-22T02:24:30;17.60;99.90
27162;DHT22;54464;50.558;9.704;2023-06-22T02:26:59;17.70;99.90
27162;DHT22;54464;50.558;9.704;2023-06-22T02:29:25;17.80;99.90
27162;DHT22;54464;50.558;9.704;2023-06-22T02:31:59;17.80;99.90
27162;DHT22;54464;50.558;9.704;2023-06-22T02:34:36;17.90;99.90
27162;DHT22;54464;50.558;9.704;2023-06-22T02:37:02;18.10;99.90
27162;DHT22;54464;50.558;9.704;2023-06-22T02:39:28;18.40;99.90
27162;DHT22;54464;50.558;9.704;2023-06-22T02:41:54;18.60;99.90
27162;DHT22;54464;50.558;9.704;2023-06-22T02:44:23;18.50;99.90
27162;DHT22;54464;50.558;9.704;2023-06-22T02:46:58;18.70;99.90
27162;DHT22;54464;50.558;9.704;2023-06-22T02:49:24;18.80;99.90
27162;DHT22;54464;50.558;9.704;2023-06-22T02:51:49;18.70;99.90
27162;DHT22;54464;50.558;9.704;2023-06-22T02:54:15;18.50;99.90
27162;DHT22;54464;50.558;9.704;2023-06-22T02:56:42;18.40;99.90
27162;DHT22;54464;50.558;9.704;2023-06-22T02:59:15;18.20;99.90
27162;DHT22;54464;50.558;9.704;2023-06-22T03:01:46;18.30;99.90
27162;DHT22;54464;50.558;9.704;2023-06-22T03:04:13;18.20;99.90
27162;DHT22;54464;50.558;9.704;2023-06-22T03:06:39;18.30;99.90
27162;DHT22;54464;50.558;9.704;2023-06-22T03:09:07;18.30;99.90
27162;DHT22;54464;50.558;9.704;2023-06-22T03:11:33;18.30;99.90
27162;DHT22;54464;50.558;9.704;2023-06-22T03:14:08;18.20;99.90
27162;DHT22;54464;50.558;9.704;2023-06-22T03:16:34;18.40;99.90
27162;DHT22;54464;50.558;9.704;2023-06-22T03:18:59;18.50;99.90
27162;DHT22;54464;50.558;9.704;2023-06-22T03:21:29;18.60;99.90
27162;DHT22;54464;50.558;9.704;2023-06-22T03:24:00;18.60;99.90
27162;DHT22;54464;50.558;9.704;2023-06-22T03:26:25;18.70;99.90
27162;DHT22;54464;50.558;9.704;2023-06-22T03:28:52;18.80;99.90
27162;DHT22;54464;50.558;9.704;2023-06-22T03:31:21;18.90;99.90
27162;DHT22;54464;50.558;9.704;2023-06-22T03:33:47;19.00;99.90
27162;DHT22;54464;50.558;9.704;2023-06-22T03:36:14;19.10;99.90
27162;DHT22;54464;50.558;9.704;2023-06-22T03:38:47;19.00;99.90
27162;DHT22;54464;50.558;9.704;2023-06-22T03:41:13;18.90;99.90
27162;DHT22;54464;50.558;9.704;2023-06-22T03:43:44;18.90;99.90
27162;DHT22;54464;50.558;9.704;2023-06-22T03:46:09;18.90;99.90
27162;DHT22;54464;50.558;9.704;2023-06-22T03:48:35;18.80;99.90
27162;DHT22;54464;50.558;9.704;2023-06-22T03:51:12;18.70;99.90
27162;DHT22;54464;50.558;9.704;2023-06-22T03:53:38;18.80;99.90
27162;DHT22;54464;50.558;9.704;2023-06-22T03:56:03;18.90;99.90
27162;DHT22;54464;50.558;9.704;2023-06-22T03:58:29;18.90;99.90
27162;DHT22;54464;50.558;9.704;2023-06-22T04:00:58;19.10;99.90
27162;DHT22;54464;50.558;9.704;2023-06-22T04:03:26;19.20;99.90
27162;DHT22;54464;50.558;9.704;2023-06-22T04:05:51;19.10;99.90
27162;DHT22;54464;50.558;9.704;2023-06-22T04:08:20;19.10;99.90
27162;DHT22;54464;50.558;9.704;2023-06-22T04:10:46;19.10;99.90
27162;DHT22;54464;50.558;9.704;2023-06-22T04:13:11;19.10;99.90
27162;DHT22;54464;50.558;9.704;2023-06-22T04:15:37;18.90;99.90
27162;DHT22;54464;50.558;9.704;2023-06-22T04:18:08;19.00;99.90
27162;DHT22;54464;50.558;9.704;2023-06-22T04:20:40;19.20;99.90
27162;DHT22;54464;50.558;9.704;2023-06-22T04:23:05;19.20;99.90
27162;DHT22;54464;50.558;9.704;2023-06-22T04:25:34;19.30;99.90
27162;DHT22;54464;50.558;9.704;2023-06-22T04:27:59;19.30;99.90
27162;DHT22;54464;50.558;9.704;2023-06-22T04:30:33;19.30;99.90
27162;DHT22;54464;50.558;9.704;2023-06-22T04:33:07;19.30;99.90
27162;DHT22;54464;50.558;9.704;2023-06-22T04:35:35;19.30;99.90
27162;DHT22;54464;50.558;9.704;2023-06-22T04:38:01;19.40;99.90
27162;DHT22;54464;50.558;9.704;2023-06-22T04:40:28;19.40;99.90
27162;DHT22;54464;50.558;9.704;2023-06-22T04:42:54;19.60;99.90
27162;DHT22;54464;50.558;9.704;2023-06-22T04:45:20;19.70;99.90
27162;DHT22;54464;50.558;9.704;2023-06-22T04:47:46;19.80;99.90
27162;DHT22;54464;50.558;9.704;2023-06-22T04:50:12;19.30;99.90
27162;DHT22;54464;50.558;9.704;2023-06-22T04:52:41;19.10;99.90
27162;DHT22;54464;50.558;9.704;2023-06-22T04:55:07;19.00;99.90
27162;DHT22;54464;50.558;9.704;2023-06-22T04:57:32;19.30;99.90
27162;DHT22;54464;50.558;9.704;2023-06-22T04:59:59;19.50;99.90
27162;DHT22;54464;50.558;9.704;2023-06-22T05:02:44;19.80;99.90
27162;DHT22;54464;50.558;9.704;2023-06-22T05:05:11;20.00;99.90
27162;DHT22;54464;50.558;9.704;2023-06-22T05:07:46;20.10;99.90
27162;DHT22;54464;50.558;9.704;2023-06-22T05:10:14;20.20;99.90
27162;DHT22;54464;50.558;9.704;2023-06-22T05:12:40;20.30;99.90
27162;DHT22;54464;50.558;9.704;2023-06-22T05:15:08;20.40;99.90
27162;DHT22;54464;50.558;9.704;2023-06-22T05:17:35;20.50;99.90
27162;DHT22;54464;50.558;9.704;2023-06-22T05:20:01;20.60;99.90
27162;DHT22;54464;50.558;9.704;2023-06-22T05:22:28;20.70;99.90
27162;DHT22;54464;50.558;9.704;2023-06-22T05:24:53;20.80;99.90
27162;DHT22;54464;50.558;9.704;2023-06-22T05:27:19;20.60;99.90
27162;DHT22;54464;50.558;9.704;2023-06-22T05:29:45;20.30;99.90
27162;DHT22;54464;50.558;9.704;2023-06-22T05:32:10;20.50;99.90
27162;DHT22;54464;50.558;9.704;2023-06-22T05:34:36;20.30;99.90
27162;DHT22;54464;50.558;9.704;2023-06-22T05:37:02;20.40;99.90
27162;DHT22;54464;50.558;9.704;2023-06-22T05:39:28;20.40;99.90
27162;DHT22;54464;50.558;9.704;2023-06-22T05:42:23;20.30;99.90
27162;DHT22;54464;50.558;9.704;2023-06-22T05:44:50;20.40;99.90
27162;DHT22;54464;50.558;9.704;2023-06-22T05:47:16;20.50;99.90
27162;DHT22;54464;50.558;9.704;2023-06-22T05:49:42;20.10;99.90
27162;DHT22;54464;50.558;9.704;2023-06-22T05:52:07;19.70;99.90
27162;DHT22;54464;50.558;9.704;2023-06-22T05:54:33;19.60;99.90
27162;DHT22;54464;50.558;9.704;2023-06-22T05:56:58;19.90;99.90
27162;DHT22;54464;50.558;9.704;2023-06-22T05:59:24;19.80;99.90
27162;DHT22;54464;50.558;9.704;2023-06-22T06:01:49;19.90;99.90
27162;DHT22;54464;50.558;9.704;2023-06-22T06:04:18;20.00;99.90
27162;DHT22;54464;50.558;9.704;2023-06-22T06:06:44;20.20;99.90
27162;DHT22;54464;50.558;9.704;2023-06-22T06:09:10;20.30;99.90
27162;DHT22;54464;50.558;9.704;2023-06-22T06:11:37;20.30;99.90
27162;DHT22;54464;50.558;9.704;2023-06-22T06:14:03;20.50;99.90
27162;DHT22;54464;50.558;9.704;2023-06-22T06:16:28;20.80;99.90
27162;DHT22;54464;50.558;9.704;2023-06-22T06:18:54;20.60;99.90
27162;DHT22;54464;50.558;9.704;2023-06-22T06:21:43;20.40;99.90
27162;DHT22;54464;50.558;9.704;2023-06-22T06:24:09;20.60;99.90
27162;DHT22;54464;50.558;9.704;2023-06-22T06:26:34;20.60;99.90
27162;DHT22;54464;50.558;9.704;2023-06-22T06:29:01;20.80;99.90
27162;DHT22;54464;50.558;9.704;2023-06-22T06:31:27;20.70;99.90
27162;DHT22;54464;50.558;9.704;2023-06-22T06:33:54;20.40;99.90
27162;DHT22;54464;50.558;9.704;2023-06-22T06:36:20;20.30;99.90
27162;DHT22;54464;50.558;9.704;2023-06-22T06:38:46;20.60;99.90
27162;DHT22;54464;50.558;9.704;2023-06-22T06:41:15;20.60;99.90
27162;DHT22;54464;50.558;9.704;2023-06-22T06:43:41;20.80;99.90
27162;DHT22;54464;50.558;9.704;2023-06-22T06:46:08;21.00;99.90
27162;DHT22;54464;50.558;9.704;2023-06-22T06:48:39;21.10;99.90
27162;DHT22;54464;50.558;9.704;2023-06-22T06:51:05;21.30;99.90
27162;DHT22;54464;50.558;9.704;2023-06-22T06:53:35;21.40;99.90
27162;DHT22;54464;50.558;9.704;2023-06-22T06:56:02;21.50;99.90
27162;DHT22;54464;50.558;9.704;2023-06-22T06:58:29;21.60;99.90
27162;DHT22;54464;50.558;9.704;2023-06-22T07:00:55;21.70;99.90
27162;DHT22;54464;50.558;9.704;2023-06-22T07:03:20;21.70;99.90
27162;DHT22;54464;50.558;9.704;2023-06-22T07:05:46;21.70;99.90
27162;DHT22;54464;50.558;9.704;2023-06-22T07:08:11;21.70;99.90
27162;DHT22;54464;50.558;9.704;2023-06-22T07:10:37;21.90;99.90
27162;DHT22;54464;50.558;9.704;2023-06-22T07:13:02;22.00;99.90
27162;DHT22;54464;50.558;9.704;2023-06-22T07:15:28;22.20;99.90
27162;DHT22;54464;50.558;9.704;2023-06-22T07:17:53;22.20;99.90
27162;DHT22;54464;50.558;9.704;2023-06-22T07:20:19;22.30;99.90
27162;DHT22;54464;50.558;9.704;2023-06-22T07:22:45;22.30;99.90
27162;DHT22;54464;50.558;9.704;2023-06-22T07:25:11;22.30;99.90
27162;DHT22;54464;50.558;9.704;2023-06-22T07:27:43;22.50;99.90
27162;DHT22;54464;50.558;9.704;2023-06-22T07:30:10;22.50;99.90
27162;DHT22;54464;50.558;9.704;2023-06-22T07:32:36;22.60;99.90
27162;DHT22;54464;50.558;9.704;2023-06-22T07:35:02;22.80;99.90
27162;DHT22;54464;50.558;9.704;2023-06-22T07:37:29;22.90;99.90
27162;DHT22;54464;50.558;9.704;2023-06-22T07:39:55;23.20;99.90
27162;DHT22;54464;50.558;9.704;2023-06-22T07:42:26;23.20;99.90
27162;DHT22;54464;50.558;9.704;2023-06-22T07:44:51;23.40;99.90
27162;DHT22;54464;50.558;9.704;2023-06-22T07:47:17;23.50;99.90
27162;DHT22;54464;50.558;9.704;2023-06-22T07:49:50;23.70;99.90
27162;DHT22;54464;50.558;9.704;2023-06-22T07:52:16;23.80;99.90
27162;DHT22;54464;50.558;9.704;2023-06-22T07:54:41;24.00;99.90
27162;DHT22;54464;50.558;9.704;2023-06-22T07:57:07;24.00;99.90
27162;DHT22;54464;50.558;9.704;2023-06-22T07:59:32;24.20;99.90
27162;DHT22;54464;50.558;9.704;2023-06-22T08:01:58;24.30;99.90
27162;DHT22;54464;50.558;9.704;2023-06-22T08:04:24;24.40;99.90
27162;DHT22;54464;50.558;9.704;2023-06-22T08:06:49;24.40;99.90
27162;DHT22;54464;50.558;9.704;2023-06-22T08:09:15;24.50;99.90
27162;DHT22;54464;50.558;9.704;2023-06-22T08:11:40;24.70;99.90
27162;DHT22;54464;50.558;9.704;2023-06-22T08:14:06;24.70;99.90
27162;DHT22;54464;50.558;9.704;2023-06-22T08:16:31;24.80;99.90
27162;DHT22;54464;50.558;9.704;2023-06-22T08:18:57;24.90;99.90
27162;DHT22;54464;50.558;9.704;2023-06-22T08:21:23;24.90;99.90
27162;DHT22;54464;50.558;9.704;2023-06-22T08:23:48;24.80;99.90
27162;DHT22;54464;50.558;9.704;2023-06-22T08:26:15;24.90;99.90
27162;DHT22;54464;50.558;9.704;2023-06-22T08:28:40;25.00;99.90
27162;DHT22;54464;50.558;9.704;2023-06-22T08:31:06;25.10;99.90
27162;DHT22;54464;50.558;9.704;2023-06-22T08:33:31;25.20;99.90
27162;DHT22;54464;50.558;9.704;2023-06-22T08:35:58;25.40;99.90
27162;DHT22;54464;50.558;9.704;2023-06-22T08:38:25;25.40;99.90
27162;DHT22;54464;50.558;9.704;2023-06-22T08:40:51;25.50;99.90
27162;DHT22;54464;50.558;9.704;2023-06-22T08:43:16;25.70;99.90
27162;DHT22;54464;50.558;9.704;2023-06-22T08:45:42;25.80;99.90
27162;DHT22;54464;50.558;9.704;2023-06-22T08:48:08;25.90;99.90
27162;DHT22;54464;50.558;9.704;2023-06-22T08:50:33;26.00;99.90
27162;DHT22;54464;50.558;9.704;2023-06-22T08:52:59;25.90;99.90
27162;DHT22;54464;50.558;9.704;2023-06-22T08:55:24;25.90;99.90
27162;DHT22;54464;50.558;9.704;2023-06-22T08:57:50;26.10;99.90
27162;DHT22;54464;50.558;9.704;2023-06-22T09:00:16;26.20;99.90
27162;DHT22;54464;50.558;9.704;2023-06-22T09:02:44;26.30;99.90
27162;DHT22;54464;50.558;9.704;2023-06-22T09:05:09;26.40;99.90
27162;DHT22;54464;50.558;9.704;2023-06-22T09:07:35;26.50;99.90
27162;DHT22;54464;50.558;9.704;2023-06-22T09:10:01;26.50;99.90
27162;DHT22;54464;50.558;9.704;2023-06-22T09:12:26;26.50;99.90
27162;DHT22;54464;50.558;9.704;2023-06-22T09:14:53;26.60;99.90
27162;DHT22;54464;50.558;9.704;2023-06-22T09:17:19;26.70;99.90
27162;DHT22;54464;50.558;9.704;2023-06-22T09:19:44;26.80;99.90
27162;DHT22;54464;50.558;9.704;2023-06-22T09:22:10;26.80;99.90
27162;DHT22;54464;50.558;9.704;2023-06-22T09:24:36;27.00;99.90
27162;DHT22;54464;50.558;9.704;2023-06-22T09:27:01;27.00;99.90
27162;DHT22;54464;50.558;9.704;2023-06-22T09:29:27;27.10;99.90
27162;DHT22;54464;50.558;9.704;2023-06-22T09:31:52;27.10;99.90
27162;DHT22;54464;50.558;9.704;2023-06-22T09:34:19;27.10;98.90
27162;DHT22;54464;50.558;9.704;2023-06-22T09:36:46;27.10;99.50
27162;DHT22;54464;50.558;9.704;2023-06-22T09:39:11;27.20;99.50
27162;DHT22;54464;50.558;9.704;2023-06-22T09:41:37;27.30;99.00
27162;DHT22;54464;50.558;9.704;2023-06-22T09:44:02;27.20;98.60
27162;DHT22;54464;50.558;9.704;2023-06-22T09:46:28;27.30;99.70
27162;DHT22;54464;50.558;9.704;2023-06-22T09:48:54;27.50;99.40
27162;DHT22;54464;50.558;9.704;2023-06-22T09:51:19;27.70;98.20
27162;DHT22;54464;50.558;9.704;2023-06-22T09:53:47;28.00;98.10
27162;DHT22;54464;50.558;9.704;2023-06-22T09:56:13;28.20;97.10
27162;DHT22;54464;50.558;9.704;2023-06-22T09:58:44;28.20;96.40
27162;DHT22;54464;50.558;9.704;2023-06-22T10:01:10;28.20;98.30
27162;DHT22;54464;50.558;9.704;2023-06-22T10:03:37;28.20;96.80
27162;DHT22;54464;50.558;9.704;2023-06-22T10:06:03;28.40;97.00
27162;DHT22;54464;50.558;9.704;2023-06-22T10:08:29;28.60;97.80
27162;DHT22;54464;50.558;9.704;2023-06-22T10:10:54;28.60;95.50
27162;DHT22;54464;50.558;9.704;2023-06-22T10:13:20;28.60;95.70
27162;DHT22;54464;50.558;9.704;2023-06-22T10:15:46;28.60;95.20
27162;DHT22;54464;50.558;9.704;2023-06-22T10:18:17;28.60;94.70
27162;DHT22;54464;50.558;9.704;2023-06-22T10:20:43;28.50;94.50
27162;DHT22;54464;50.558;9.704;2023-06-22T10:23:09;28.40;94.80
27162;DHT22;54464;50.558;9.704;2023-06-22T10:25:35;28.50;96.00
27162;DHT22;54464;50.558;9.704;2023-06-22T10:28:00;28.80;93.90
27162;DHT22;54464;50.558;9.704;2023-06-22T10:30:26;28.80;94.20
27162;DHT22;54464;50.558;9.704;2023-06-22T10:32:51;29.10;94.10
27162;DHT22;54464;50.558;9.704;2023-06-22T10:35:17;29.30;94.00
27162;DHT22;54464;50.558;9.704;2023-06-22T10:37:46;29.60;93.60
27162;DHT22;54464;50.558;9.704;2023-06-22T10:40:13;29.90;93.50
27162;DHT22;54464;50.558;9.704;2023-06-22T10:42:39;30.40;92.80
27162;DHT22;54464;50.558;9.704;2023-06-22T10:45:05;30.60;92.50
27162;DHT22;54464;50.558;9.704;2023-06-22T10:47:31;30.60;92.10
27162;DHT22;54464;50.558;9.704;2023-06-22T10:49:56;30.60;89.20
27162;DHT22;54464;50.558;9.704;2023-06-22T10:52:22;30.30;90.80
27162;DHT22;54464;50.558;9.704;2023-06-22T10:54:48;30.20;90.80
27162;DHT22;54464;50.558;9.704;2023-06-22T10:57:13;30.30;91.50
27162;DHT22;54464;50.558;9.704;2023-06-22T10:59:39;30.60;91.30
27162;DHT22;54464;50.558;9.704;2023-06-22T11:02:05;31.00;90.50
27162;DHT22;54464;50.558;9.704;2023-06-22T11:04:31;31.20;90.40
27162;DHT22;54464;50.558;9.704;2023-06-22T11:06:56;31.40;90.40
27162;DHT22;54464;50.558;9.704;2023-06-22T11:09:22;31.80;88.80
27162;DHT22;54464;50.558;9.704;2023-06-22T11:11:49;31.80;90.40
27162;DHT22;54464;50.558;9.704;2023-06-22T11:14:14;32.10;88.00
27162;DHT22;54464;50.558;9.704;2023-06-22T11:16:40;32.60;88.70
27162;DHT22;54464;50.558;9.704;2023-06-22T11:19:06;32.60;82.80
27162;DHT22;54464;50.558;9.704;2023-06-22T11:21:31;32.40;85.50
27162;DHT22;54464;50.558;9.704;2023-06-22T11:23:58;32.30;83.20
27162;DHT22;54464;50.558;9.704;2023-06-22T11:26:24;32.20;83.00
27162;DHT22;54464;50.558;9.704;2023-06-22T11:28:52;32.30;82.50
27162;DHT22;54464;50.558;9.704;2023-06-22T11:31:17;32.40;80.90
27162;DHT22;54464;50.558;9.704;2023-06-22T11:33:43;32.40;80.80
27162;DHT22;54464;50.558;9.704;2023-06-22T11:36:11;32.50;84.10
27162;DHT22;54464;50.558;9.704;2023-06-22T11:38:37;32.80;86.50
27162;DHT22;54464;50.558;9.704;2023-06-22T11:41:07;32.40;81.60
27162;DHT22;54464;50.558;9.704;2023-06-22T11:43:33;32.00;81.40
27162;DHT22;54464;50.558;9.704;2023-06-22T11:46:01;32.00;85.60
27162;DHT22;54464;50.558;9.704;2023-06-22T11:48:27;32.10;83.60
27162;DHT22;54464;50.558;9.704;2023-06-22T11:50:52;32.40;82.00
27162;DHT22;54464;50.558;9.704;2023-06-22T11:53:18;33.50;80.10
27162;DHT22;54464;50.558;9.704;2023-06-22T11:55:44;34.40;81.20
27162;DHT22;54464;50.558;9.704;2023-06-22T11:58:10;35.40;77.30
27162;DHT22;54464;50.558;9.704;2023-06-22T12:00:37;35.80;74.00
27162;DHT22;54464;50.558;9.704;2023-06-22T12:03:02;35.70;72.90
27162;DHT22;54464;50.558;9.704;2023-06-22T12:05:28;35.00;73.10
27162;DHT22;54464;50.558;9.704;2023-06-22T12:07:54;34.80;74.60
27162;DHT22;54464;50.558;9.704;2023-06-22T12:10:23;34.40;76.80
27162;DHT22;54464;50.558;9.704;2023-06-22T12:13:00;35.10;73.00
27162;DHT22;54464;50.558;9.704;2023-06-22T12:15:28;35.80;72.10
27162;DHT22;54464;50.558;9.704;2023-06-22T12:17:54;36.70;73.80
27162;DHT22;54464;50.558;9.704;2023-06-22T12:20:20;37.50;68.90
27162;DHT22;54464;50.558;9.704;2023-06-22T12:22:45;37.80;68.10
27162;DHT22;54464;50.558;9.704;2023-06-22T12:25:11;37.60;68.00
27162;DHT22;54464;50.558;9.704;2023-06-22T12:27:37;36.80;69.20
27162;DHT22;54464;50.558;9.704;2023-06-22T12:30:03;35.90;70.30
27162;DHT22;54464;50.558;9.704;2023-06-22T12:32:29;34.80;73.30
27162;DHT22;54464;50.558;9.704;2023-06-22T12:34:55;34.30;75.60
27162;DHT22;54464;50.558;9.704;2023-06-22T12:37:21;34.90;76.10
27162;DHT22;54464;50.558;9.704;2023-06-22T12:39:47;36.50;75.70
27162;DHT22;54464;50.558;9.704;2023-06-22T12:42:12;37.30;72.20
27162;DHT22;54464;50.558;9.704;2023-06-22T12:44:39;36.70;72.80
27162;DHT22;54464;50.558;9.704;2023-06-22T12:47:07;36.10;72.20
27162;DHT22;54464;50.558;9.704;2023-06-22T12:49:39;36.30;74.10
27162;DHT22;54464;50.558;9.704;2023-06-22T12:52:11;37.00;71.70
27162;DHT22;54464;50.558;9.704;2023-06-22T12:54:37;38.60;67.70
27162;DHT22;54464;50.558;9.704;2023-06-22T12:57:05;39.00;67.00
27162;DHT22;54464;50.558;9.704;2023-06-22T12:59:30;38.40;66.50
27162;DHT22;54464;50.558;9.704;2023-06-22T13:01:56;37.20;68.90
27162;DHT22;54464;50.558;9.704;2023-06-22T13:04:21;36.80;72.10
27162;DHT22;54464;50.558;9.704;2023-06-22T13:06:47;37.30;70.10
27162;DHT22;54464;50.558;9.704;2023-06-22T13:09:17;37.50;72.00
27162;DHT22;54464;50.558;9.704;2023-06-22T13:11:43;38.10;69.20
27162;DHT22;54464;50.558;9.704;2023-06-22T13:14:09;37.80;69.00
27162;DHT22;54464;50.558;9.704;2023-06-22T13:16:35;37.80;70.00
27162;DHT22;54464;50.558;9.704;2023-06-22T13:19:00;38.40;68.50
27162;DHT22;54464;50.558;9.704;2023-06-22T13:21:26;38.40;67.80
27162;DHT22;54464;50.558;9.704;2023-06-22T13:23:52;38.00;71.10
27162;DHT22;54464;50.558;9.704;2023-06-22T13:26:17;37.90;68.70
27162;DHT22;54464;50.558;9.704;2023-06-22T13:28:45;37.90;68.90
27162;DHT22;54464;50.558;9.704;2023-06-22T13:31:27;37.40;72.30
27162;DHT22;54464;50.558;9.704;2023-06-22T13:33:53;37.70;73.00
27162;DHT22;54464;50.558;9.704;2023-06-22T13:36:19;38.20;71.20
27162;DHT22;54464;50.558;9.704;2023-06-22T13:38:50;37.90;69.70
27162;DHT22;54464;50.558;9.704;2023-06-22T13:41:16;37.90;69.90
27162;DHT22;54464;50.558;9.704;2023-06-22T13:43:41;37.80;69.70
27162;DHT22;54464;50.558;9.704;2023-06-22T13:46:07;37.90;70.00
27162;DHT22;54464;50.558;9.704;2023-06-22T13:48:33;37.80;70.70
27162;DHT22;54464;50.558;9.704;2023-06-22T13:51:01;38.20;69.00
27162;DHT22;54464;50.558;9.704;2023-06-22T13:53:30;38.50;69.10
27162;DHT22;54464;50.558;9.704;2023-06-22T13:55:56;39.00;69.20
27162;DHT22;54464;50.558;9.704;2023-06-22T13:58:22;38.50;69.60
27162;DHT22;54464;50.558;9.704;2023-06-22T14:01:05;38.00;67.80
27162;DHT22;54464;50.558;9.704;2023-06-22T14:03:33;38.10;69.80
27162;DHT22;54464;50.558;9.704;2023-06-22T14:05:59;38.50;67.30
27162;DHT22;54464;50.558;9.704;2023-06-22T14:08:45;37.70;70.30
27162;DHT22;54464;50.558;9.704;2023-06-22T14:11:10;38.10;68.10
27162;DHT22;54464;50.558;9.704;2023-06-22T14:13:39;38.00;68.60
27162;DHT22;54464;50.558;9.704;2023-06-22T14:16:10;36.30;69.70
27162;DHT22;54464;50.558;9.704;2023-06-22T14:18:41;35.20;73.10
27162;DHT22;54464;50.558;9.704;2023-06-22T14:21:07;34.60;75.50
27162;DHT22;54464;50.558;9.704;2023-06-22T14:23:33;35.50;74.40
27162;DHT22;54464;50.558;9.704;2023-06-22T14:25:58;36.90;72.90
27162;DHT22;54464;50.558;9.704;2023-06-22T14:28:24;36.50;71.50
27162;DHT22;54464;50.558;9.704;2023-06-22T14:30:52;38.10;69.40
27162;DHT22;54464;50.558;9.704;2023-06-22T14:33:31;37.90;68.80
27162;DHT22;54464;50.558;9.704;2023-06-22T14:35:57;38.00;68.70
27162;DHT22;54464;50.558;9.704;2023-06-22T14:38:22;37.20;69.60
27162;DHT22;54464;50.558;9.704;2023-06-22T14:40:48;37.30;69.90
27162;DHT22;54464;50.558;9.704;2023-06-22T14:43:24;37.30;70.50
27162;DHT22;54464;50.558;9.704;2023-06-22T14:45:50;37.50;70.00
27162;DHT22;54464;50.558;9.704;2023-06-22T14:48:19;39.00;68.10
27162;DHT22;54464;50.558;9.704;2023-06-22T14:50:47;38.50;67.80
27162;DHT22;54464;50.558;9.704;2023-06-22T14:53:12;40.00;66.00
27162;DHT22;54464;50.558;9.704;2023-06-22T14:55:39;40.50;64.30
27162;DHT22;54464;50.558;9.704;2023-06-22T14:58:20;41.00;63.20
27162;DHT22;54464;50.558;9.704;2023-06-22T15:00:51;40.20;64.90
27162;DHT22;54464;50.558;9.704;2023-06-22T15:03:16;40.20;67.50
27162;DHT22;54464;50.558;9.704;2023-06-22T15:05:47;41.80;63.20
27162;DHT22;54464;50.558;9.704;2023-06-22T15:08:12;38.50;64.40
27162;DHT22;54464;50.558;9.704;2023-06-22T15:10:40;37.20;67.50
27162;DHT22;54464;50.558;9.704;2023-06-22T15:13:06;36.30;67.70
27162;DHT22;54464;50.558;9.704;2023-06-22T15:15:34;35.80;69.60
27162;DHT22;54464;50.558;9.704;2023-06-22T15:18:00;35.30;71.80
27162;DHT22;54464;50.558;9.704;2023-06-22T15:20:26;36.00;69.20
27162;DHT22;54464;50.558;9.704;2023-06-22T15:22:54;37.00;68.20
27162;DHT22;54464;50.558;9.704;2023-06-22T15:25:20;37.00;66.80
27162;DHT22;54464;50.558;9.704;2023-06-22T15:27:45;36.70;68.20
27162;DHT22;54464;50.558;9.704;2023-06-22T15:30:11;36.70;68.50
27162;DHT22;54464;50.558;9.704;2023-06-22T15:32:48;36.30;68.40